createdAt,value
2018-05-01T00:00:03.504Z,82.60
2018-05-01T00:02:33.221Z,82.60
2018-05-01T00:05:03.822Z,82.90
2018-05-01T00:07:33.545Z,82.90
2018-05-01T00:10:03.364Z,82.90
2018-05-01T00:12:33.065Z,83.20
2018-05-01T00:15:03.017Z,83.60
2018-05-01T00:17:32.747Z,83.80
2018-05-01T00:20:02.688Z,83.80
2018-05-01T00:22:33.404Z,83.80
2018-05-01T00:25:03.396Z,83.80
2018-05-01T00:27:33.080Z,84.00
2018-05-01T00:30:02.996Z,82.80
2018-05-01T00:32:33.146Z,83.10
2018-05-01T00:35:03.985Z,83.70
2018-05-01T00:37:34.526Z,83.60
2018-05-01T00:40:04.254Z,83.80
2018-05-01T00:42:33.982Z,83.90
2018-05-01T00:45:04.738Z,82.80
2018-05-01T00:47:35.229Z,82.60
2018-05-01T00:50:05.268Z,82.60
2018-05-01T00:52:46.544Z,82.60
2018-05-01T00:55:16.376Z,82.60
2018-05-01T00:57:46.940Z,82.90
2018-05-01T01:00:16.616Z,82.80
2018-05-01T01:02:47.041Z,82.30
2018-05-01T01:05:17.575Z,81.60
2018-05-01T01:07:48.141Z,81.80
2018-05-01T01:10:17.944Z,81.70
2018-05-01T01:12:47.756Z,81.80
2018-05-01T01:15:17.595Z,81.70
2018-05-01T01:17:47.290Z,81.60
2018-05-01T01:20:17.022Z,81.40
2018-05-01T01:22:46.725Z,82.60
2018-05-01T01:25:16.448Z,81.80
2018-05-01T01:27:46.134Z,81.60
2018-05-01T01:30:16.317Z,81.60
2018-05-01T01:32:46.722Z,81.80
2018-05-01T01:35:16.320Z,82.40
2018-05-01T01:37:45.713Z,82.30
2018-05-01T01:40:14.428Z,82.70
2018-05-01T01:42:43.494Z,82.40
2018-05-01T01:45:13.216Z,82.30
2018-05-01T01:47:42.076Z,82.10
2018-05-01T01:50:10.805Z,82.00
2018-05-01T01:52:40.288Z,81.40
2018-05-01T01:55:08.991Z,81.40
2018-05-01T01:57:38.474Z,81.20
2018-05-01T02:00:07.309Z,81.10
2018-05-01T02:02:36.975Z,80.80
2018-05-01T02:05:07.375Z,79.50
2018-05-01T02:07:36.727Z,79.50
2018-05-01T02:10:06.192Z,78.20
2018-05-01T02:12:36.151Z,78.20
2018-05-01T02:15:05.739Z,77.10
2018-05-01T02:17:34.441Z,77.10
2018-05-01T02:20:04.041Z,76.50
2018-05-01T02:22:33.640Z,75.60
2018-05-01T02:25:02.488Z,75.50
2018-05-01T02:27:31.317Z,75.10
2018-05-01T02:30:00.137Z,75.00
2018-05-01T02:32:28.856Z,74.70
2018-05-01T02:34:57.577Z,74.40
2018-05-01T02:37:26.273Z,74.50
2018-05-01T02:39:56.769Z,74.70
2018-05-01T02:42:25.469Z,73.90
2018-05-01T02:44:54.555Z,74.50
2018-05-01T02:47:23.265Z,73.30
2018-05-01T02:49:52.896Z,72.00
2018-05-01T02:52:21.740Z,72.00
2018-05-01T02:54:50.454Z,71.40
2018-05-01T02:57:19.823Z,71.00
2018-05-01T02:59:49.083Z,71.30
2018-05-01T03:02:17.921Z,70.50
2018-05-01T03:04:46.735Z,69.50
2018-05-01T03:07:16.239Z,69.50
2018-05-01T03:09:45.777Z,69.40
2018-05-01T03:12:14.635Z,69.40
2018-05-01T03:14:44.027Z,69.40
2018-05-01T03:17:12.753Z,69.30
2018-05-01T03:19:41.594Z,69.30
2018-05-01T03:22:11.487Z,69.30
2018-05-01T03:24:41.109Z,69.10
2018-05-01T03:27:09.818Z,69.20
2018-05-01T03:29:39.298Z,68.70
2018-05-01T03:32:08.011Z,68.70
2018-05-01T03:34:38.163Z,68.50
2018-05-01T03:37:07.017Z,68.50
2018-05-01T03:39:36.652Z,68.20
2018-05-01T03:42:05.390Z,68.20
2018-05-01T03:44:34.223Z,67.20
2018-05-01T03:47:02.964Z,66.80
2018-05-01T03:49:33.244Z,66.30
2018-05-01T03:52:03.545Z,66.10
2018-05-01T03:54:34.640Z,66.10
2018-05-01T03:57:03.361Z,66.10
2018-05-01T03:59:33.547Z,65.70
2018-05-01T04:02:03.030Z,65.70
2018-05-01T04:04:31.997Z,65.40
2018-05-01T04:07:00.736Z,65.70
2018-05-01T04:09:29.575Z,65.30
2018-05-01T04:11:59.044Z,64.50
2018-05-01T04:14:27.729Z,64.60
2018-05-01T04:16:56.444Z,64.30
2018-05-01T04:19:26.028Z,63.00
2018-05-01T04:21:55.739Z,62.40
2018-05-01T04:24:24.597Z,62.30
2018-05-01T04:26:54.957Z,61.60
2018-05-01T04:29:24.378Z,61.50
2018-05-01T04:31:55.221Z,61.30
2018-05-01T04:34:25.446Z,61.60
2018-05-01T04:36:55.543Z,60.70
2018-05-01T04:39:24.790Z,60.60
2018-05-01T04:41:53.511Z,59.60
2018-05-01T04:44:22.382Z,59.00
2018-05-01T04:46:51.768Z,58.50
2018-05-01T04:49:20.679Z,58.70
2018-05-01T04:51:49.502Z,58.30
2018-05-01T04:54:18.428Z,58.60
2018-05-01T04:56:47.139Z,60.00
2018-05-01T04:59:16.046Z,60.70
2018-05-01T05:01:45.673Z,61.30
2018-05-01T05:04:16.108Z,59.60
2018-05-01T05:06:46.688Z,57.50
2018-05-01T05:09:16.234Z,57.50
2018-05-01T05:11:46.691Z,54.50
2018-05-01T05:14:16.466Z,54.40
2018-05-01T05:16:45.216Z,54.60
2018-05-01T05:19:13.967Z,54.60
2018-05-01T05:21:43.511Z,56.40
2018-05-01T05:24:12.372Z,59.70
2018-05-01T05:26:41.183Z,59.30
2018-05-01T05:29:10.284Z,60.10
2018-05-01T05:31:39.017Z,59.90
2018-05-01T05:34:08.479Z,59.80
2018-05-01T05:36:37.386Z,59.80
2018-05-01T05:39:06.259Z,59.90
2018-05-01T09:42:17.219Z,64.60
2018-05-01T09:44:48.212Z,64.40
2018-05-01T09:47:17.049Z,65.50
2018-05-01T09:49:52.096Z,64.60
2018-05-01T09:52:21.987Z,64.80
2018-05-01T09:54:52.616Z,64.80
2018-05-01T10:04:16.064Z,67.00
2018-05-01T10:06:45.854Z,67.00
2018-05-01T10:09:16.508Z,67.40
2018-05-01T10:11:46.235Z,67.40
2018-05-01T10:14:15.988Z,67.60
2018-05-01T10:16:45.766Z,67.20
2018-05-01T10:19:15.622Z,66.80
2018-05-01T10:21:46.154Z,67.30
2018-05-01T10:24:16.701Z,67.50
2018-05-01T10:26:47.089Z,67.50
2018-05-01T10:29:16.826Z,67.80
2018-05-01T10:31:48.295Z,67.30
2018-05-01T10:34:18.066Z,67.30
2018-05-01T10:36:48.073Z,67.40
2018-05-01T10:39:17.828Z,67.50
2018-05-01T10:41:48.143Z,67.70
2018-05-01T10:44:17.998Z,67.70
2018-05-01T10:46:49.982Z,69.30
2018-05-01T10:49:19.790Z,69.30
2018-05-01T10:51:49.574Z,69.60
2018-05-01T10:54:19.350Z,70.10
2018-05-01T10:56:49.870Z,70.00
2018-05-01T10:59:20.425Z,70.10
2018-05-01T11:01:50.183Z,70.10
2018-05-01T11:04:19.953Z,70.40
2018-05-01T11:06:49.718Z,70.70
2018-05-01T11:09:19.492Z,71.00
2018-05-01T11:11:49.295Z,71.20
2018-05-01T11:14:19.098Z,71.30
2018-05-01T11:16:48.902Z,71.20
2018-05-01T11:19:18.642Z,71.20
2018-05-01T11:21:48.455Z,71.10
2018-05-01T11:24:19.277Z,71.10
2018-05-01T11:26:49.301Z,71.30
2018-05-01T11:29:19.561Z,71.50
2018-05-01T11:31:49.315Z,71.70
2018-05-01T11:34:19.114Z,72.00
2018-05-01T11:36:48.857Z,72.10
2018-05-01T11:39:18.646Z,72.10
2018-05-01T11:41:48.547Z,72.30
2018-05-01T11:44:19.087Z,72.70
2018-05-01T11:46:48.855Z,72.60
2018-05-01T11:49:18.597Z,73.00
2018-05-01T11:51:48.609Z,73.30
2018-05-01T11:54:19.172Z,73.40
2018-05-01T11:56:48.986Z,73.40
2018-05-01T11:59:18.759Z,73.50
2018-05-01T12:01:49.430Z,73.80
2018-05-01T12:04:19.234Z,73.80
2018-05-01T12:06:49.630Z,73.90
2018-05-01T12:09:20.195Z,73.90
2018-05-01T12:11:50.007Z,73.90
2018-05-01T12:14:19.777Z,74.00
2018-05-01T12:16:50.292Z,74.20
2018-05-01T12:19:20.107Z,74.20
2018-05-01T12:21:49.878Z,74.20
2018-05-01T12:24:19.684Z,74.20
2018-05-01T12:26:49.447Z,74.40
2018-05-01T12:29:20.025Z,75.00
2018-05-01T12:31:49.795Z,74.90
2018-05-01T12:34:20.332Z,75.00
2018-05-01T12:36:50.325Z,74.90
2018-05-01T12:39:21.004Z,75.10
2018-05-01T12:41:50.769Z,75.10
2018-05-01T12:44:20.749Z,75.20
2018-05-01T12:46:50.505Z,75.20
2018-05-01T12:49:21.020Z,75.70
2018-05-01T12:51:50.983Z,75.70
2018-05-01T12:54:20.818Z,76.10
2018-05-01T12:56:50.673Z,76.20
2018-05-01T12:59:21.209Z,76.40
2018-05-01T13:01:51.766Z,75.90
2018-05-01T13:04:21.557Z,76.00
2018-05-01T13:06:52.998Z,75.60
2018-05-01T13:09:23.564Z,75.90
2018-05-01T13:11:53.342Z,76.00
2018-05-01T13:14:23.877Z,76.50
2018-05-01T13:16:55.227Z,76.40
2018-05-01T13:19:25.979Z,76.40
2018-05-01T13:21:55.862Z,76.40
2018-05-01T13:24:26.619Z,76.70
2018-05-01T13:26:57.568Z,76.50
2018-05-01T13:29:27.329Z,76.40
2018-05-01T13:31:57.195Z,76.70
2018-05-01T13:34:27.034Z,76.50
2018-05-01T13:36:56.897Z,76.30
2018-05-01T13:39:27.513Z,76.40
2018-05-01T13:41:58.132Z,76.80
2018-05-01T13:44:27.870Z,76.70
2018-05-01T13:46:58.365Z,76.90
2018-05-01T13:58:14.526Z,77.20
2018-05-01T14:23:55.280Z,77.00
2018-05-01T14:41:53.841Z,77.10
2018-05-01T15:49:55.148Z,74.80
2018-05-01T15:52:24.889Z,75.10
2018-05-01T15:54:54.787Z,75.60
2018-05-01T15:57:24.692Z,76.30
2018-05-01T15:59:54.548Z,76.60
2018-05-01T16:02:25.955Z,77.00
2018-05-01T16:04:55.932Z,77.00
2018-05-01T16:07:27.005Z,77.40
2018-05-01T16:09:56.888Z,77.60
2018-05-01T16:12:26.602Z,77.80
2018-05-01T16:14:56.289Z,77.80
2018-05-01T16:17:26.832Z,77.80
2018-05-01T16:19:57.617Z,77.80
2018-05-01T16:22:27.506Z,77.70
2018-05-01T16:24:57.396Z,77.90
2018-05-01T16:27:27.262Z,78.10
2018-05-01T16:29:57.170Z,78.20
2018-05-01T16:32:27.041Z,78.30
2018-05-01T16:34:56.869Z,78.30
2018-05-01T16:37:26.559Z,78.30
2018-05-01T16:39:56.363Z,78.30
2018-05-01T16:42:26.070Z,78.60
2018-05-01T16:44:55.904Z,78.60
2018-05-01T16:47:25.713Z,78.80
2018-05-01T16:49:55.556Z,79.00
2018-05-01T16:52:25.271Z,78.80
2018-05-01T16:54:55.413Z,78.90
2018-05-01T16:57:25.241Z,78.90
2018-05-01T16:59:55.089Z,79.00
2018-05-01T17:02:26.631Z,79.20
2018-05-01T17:04:56.476Z,79.00
2018-05-01T17:07:26.329Z,79.30
2018-05-01T17:09:56.929Z,79.60
2018-05-01T17:12:26.639Z,79.60
2018-05-01T17:14:56.362Z,79.60
2018-05-01T17:17:26.148Z,79.70
2018-05-01T17:19:55.982Z,79.80
2018-05-01T17:22:25.696Z,79.70
2018-05-01T17:24:56.606Z,79.90
2018-05-01T17:27:27.448Z,80.30
2018-05-01T17:29:57.151Z,80.50
2018-05-01T17:32:26.848Z,80.50
2018-05-01T17:34:56.735Z,80.60
2018-05-01T17:37:26.501Z,80.70
2018-05-01T17:39:56.236Z,80.70
2018-05-01T17:42:26.818Z,80.90
2018-05-01T17:44:56.684Z,80.90
2018-05-01T17:47:27.529Z,81.20
2018-05-01T17:49:58.055Z,81.10
2018-05-01T17:52:27.889Z,81.30
2018-05-01T17:54:57.880Z,81.40
2018-05-01T17:57:28.431Z,81.40
2018-05-01T17:59:58.398Z,81.30
2018-05-01T18:02:28.206Z,81.20
2018-05-01T18:04:58.066Z,81.20
2018-05-01T18:07:27.791Z,81.30
2018-05-01T18:09:57.683Z,81.30
2018-05-01T18:12:27.520Z,81.50
2018-05-01T18:14:57.401Z,81.40
2018-05-01T18:17:27.112Z,81.60
2018-05-01T18:19:57.615Z,81.70
2018-05-01T18:22:27.339Z,81.60
2018-05-01T18:24:58.017Z,81.70
2018-05-01T18:27:28.751Z,82.50
2018-05-01T18:29:58.636Z,81.60
2018-05-01T18:32:28.436Z,81.70
2018-05-01T18:34:58.976Z,81.80
2018-05-01T18:37:28.789Z,81.70
2018-05-01T18:39:58.654Z,81.70
2018-05-01T18:42:28.480Z,81.60
2018-05-01T18:44:58.202Z,81.70
2018-05-01T18:47:28.802Z,81.70
2018-05-01T18:49:58.642Z,81.70
2018-05-01T18:52:29.254Z,81.50
2018-05-01T18:55:00.117Z,81.50
2018-05-01T18:57:30.892Z,81.40
2018-05-01T19:00:00.799Z,81.40
2018-05-01T19:02:30.518Z,81.50
2018-05-01T19:05:00.234Z,81.60
2018-05-01T19:07:30.056Z,81.80
2018-05-01T19:09:59.901Z,82.00
2018-05-01T19:12:31.101Z,82.10
2018-05-01T19:15:00.980Z,82.00
2018-05-01T19:17:31.793Z,82.00
2018-05-01T19:20:01.836Z,82.00
2018-05-01T19:22:31.752Z,82.10
2018-05-01T19:25:01.636Z,82.00
2018-05-01T19:27:31.430Z,81.70
2018-05-01T19:30:01.305Z,82.60
2018-05-01T19:32:30.951Z,81.80
2018-05-01T19:35:00.671Z,81.80
2018-05-01T19:37:30.404Z,82.00
2018-05-01T19:40:00.898Z,82.10
2018-05-01T19:42:30.740Z,82.10
2018-05-01T19:45:01.224Z,82.10
2018-05-01T19:47:30.942Z,82.00
2018-05-01T19:50:00.639Z,82.10
2018-05-01T19:52:30.522Z,82.20
2018-05-01T19:55:00.277Z,82.20
2018-05-01T19:57:31.006Z,82.20
2018-05-01T20:00:00.745Z,82.30
2018-05-01T20:02:30.631Z,82.20
2018-05-01T20:05:00.507Z,82.30
2018-05-01T20:07:30.423Z,82.50
2018-05-01T20:10:00.288Z,82.80
2018-05-01T20:12:30.884Z,83.10
2018-05-01T20:15:00.658Z,83.10
2018-05-01T20:17:31.156Z,83.00
2018-05-01T20:20:00.909Z,82.90
2018-05-01T20:22:30.714Z,82.90
2018-05-01T20:25:01.356Z,82.60
2018-05-01T20:27:31.197Z,82.50
2018-05-01T20:30:00.950Z,82.30
2018-05-01T20:32:30.873Z,82.10
2018-05-01T20:35:01.373Z,81.80
2018-05-01T20:37:31.225Z,81.70
2018-05-01T20:40:01.743Z,81.90
2018-05-01T20:42:31.658Z,81.90
2018-05-01T20:45:02.155Z,82.10
2018-05-01T20:47:31.863Z,82.10
2018-05-01T20:50:01.601Z,82.10
2018-05-01T20:52:32.265Z,82.30
2018-05-01T20:55:02.106Z,82.30
2018-05-01T20:57:31.786Z,82.50
2018-05-01T21:00:01.660Z,82.30
2018-05-01T21:02:31.491Z,82.50
2018-05-01T21:05:01.380Z,82.80
2018-05-01T21:07:31.070Z,82.90
2018-05-01T21:10:00.876Z,82.70
2018-05-01T21:12:30.692Z,82.50
2018-05-01T21:15:00.496Z,82.60
2018-05-01T21:17:30.333Z,82.50
2018-05-01T21:20:00.105Z,82.30
2018-05-01T21:22:29.955Z,82.30
2018-05-01T21:24:59.774Z,82.60
2018-05-01T21:27:30.062Z,82.60
2018-05-01T21:29:59.915Z,83.50
2018-05-01T21:32:29.633Z,82.70
2018-05-01T21:35:00.286Z,82.60
2018-05-01T21:37:30.957Z,82.60
2018-05-01T21:40:00.661Z,82.70
2018-05-01T21:42:30.384Z,82.80
2018-05-01T21:45:00.245Z,82.90
2018-05-01T21:47:29.925Z,82.90
2018-05-01T21:49:59.766Z,82.90
2018-05-01T21:52:30.426Z,82.80
2018-05-01T21:55:00.181Z,82.80
2018-05-01T21:57:30.052Z,82.70
2018-05-01T21:59:59.865Z,82.70
2018-05-01T22:02:29.587Z,82.70
2018-05-01T22:04:59.295Z,82.80
2018-05-01T22:07:29.028Z,82.80
2018-05-01T22:09:58.807Z,82.70
2018-05-01T22:12:28.676Z,82.70
2018-05-01T22:14:59.113Z,82.90
2018-05-01T22:17:29.849Z,82.80
2018-05-01T22:20:00.449Z,82.80
2018-05-01T22:22:30.168Z,82.60
2018-05-01T22:24:59.986Z,82.80
2018-05-01T22:27:31.679Z,82.70
2018-05-01T22:30:01.507Z,82.70
2018-05-01T22:32:31.313Z,82.90
2018-05-01T22:35:01.197Z,83.00
2018-05-01T22:37:30.957Z,82.90
2018-05-01T22:40:00.836Z,83.20
2018-05-01T22:42:30.675Z,83.30
2018-05-01T22:45:00.392Z,83.30
2018-05-01T22:47:30.135Z,83.20
2018-05-01T22:49:59.968Z,83.10
2018-05-01T22:52:29.644Z,83.00
2018-05-01T22:54:59.478Z,82.80
2018-05-01T22:57:29.985Z,82.90
2018-05-01T22:59:59.836Z,82.80
2018-05-01T23:02:29.593Z,82.70
2018-05-01T23:04:59.436Z,82.50
2018-05-01T23:07:29.926Z,82.40
2018-05-01T23:09:59.696Z,82.40
2018-05-01T23:12:30.287Z,82.70
2018-05-01T23:15:00.010Z,82.60
2018-05-01T23:17:29.888Z,82.70
2018-05-01T23:19:59.696Z,82.60
2018-05-01T23:22:29.674Z,82.50
2018-05-01T23:25:00.303Z,82.80
2018-05-01T23:27:30.895Z,82.90
2018-05-01T23:30:00.741Z,82.90
2018-05-01T23:32:31.351Z,83.10
2018-05-01T23:35:01.063Z,83.00
2018-05-01T23:37:30.808Z,82.90
2018-05-01T23:40:00.564Z,82.70
2018-05-01T23:42:30.377Z,82.60
2018-05-01T23:45:00.076Z,82.60
2018-05-01T23:47:29.948Z,82.30
2018-05-01T23:49:59.682Z,82.30
2018-05-01T23:52:29.529Z,82.50
2018-05-01T23:54:59.377Z,82.40
2018-05-01T23:57:29.877Z,82.20
2018-05-01T23:59:59.572Z,82.20
